Time;durP1;ratioP1;P1;durP2;ratioP2;P2;SDS_P1;SDS_P2;PMS_P1;PMS_P2;Temp;Humidity;BMP_temperature;BMP_pressure;BME280_temperature;BME280_humidity;BME280_pressure;Samples;Min_cycle;Max_cycle;Signal;HPM_P1;HPM_P2
2023/04/30 00:01:39;;;;;;;6.30;2.85;;;7.50;99.90;;;;;;4999788;28;20145;-76
2023/04/30 00:04:05;;;;;;;4.88;2.30;;;7.10;99.90;;;;;;5017037;28;20099;-76
2023/04/30 00:06:31;;;;;;;5.88;2.78;;;7.10;99.90;;;;;;5016112;28;20050;-76
2023/04/30 00:08:56;;;;;;;7.65;3.20;;;7.10;99.90;;;;;;4999832;28;20496;-76
2023/04/30 00:11:24;;;;;;;5.90;3.50;;;7.30;99.90;;;;;;5016936;28;20062;-76
2023/04/30 00:13:50;;;;;;;5.50;3.40;;;7.00;99.90;;;;;;5016228;28;20053;-76
2023/04/30 00:16:17;;;;;;;8.23;3.20;;;6.90;99.90;;;;;;5017173;28;20046;-75
2023/04/30 00:18:42;;;;;;;5.13;3.15;;;7.00;99.90;;;;;;5016803;28;20136;-75
2023/04/30 00:21:08;;;;;;;5.57;3.10;;;7.40;99.90;;;;;;5016807;28;20084;-75
2023/04/30 00:23:34;;;;;;;6.60;3.20;;;6.90;99.90;;;;;;5015819;28;20100;-76
2023/04/30 00:26:00;;;;;;;4.38;2.90;;;6.80;99.90;;;;;;5016654;28;20050;-75
2023/04/30 00:28:26;;;;;;;7.22;3.45;;;7.00;99.90;;;;;;5016772;28;20092;-76
2023/04/30 00:30:52;;;;;;;6.85;4.05;;;6.80;99.90;;;;;;5016548;28;20093;-76
2023/04/30 00:33:17;;;;;;;8.20;3.35;;;6.80;99.90;;;;;;5014594;28;20045;-76
2023/04/30 00:35:43;;;;;;;5.95;3.28;;;6.70;99.90;;;;;;5016490;28;20112;-76
2023/04/30 00:38:09;;;;;;;8.55;3.67;;;6.60;99.90;;;;;;4999014;28;20132;-76
2023/04/30 00:40:36;;;;;;;5.53;3.50;;;6.60;99.90;;;;;;5015729;28;20141;-76
2023/04/30 00:43:02;;;;;;;6.00;3.35;;;6.50;99.90;;;;;;5017202;28;20104;-76
2023/04/30 00:45:28;;;;;;;6.00;3.03;;;6.40;99.90;;;;;;4999098;28;20045;-76
2023/04/30 00:47:54;;;;;;;4.75;3.13;;;6.50;99.90;;;;;;5014549;28;20406;-77
2023/04/30 00:50:21;;;;;;;7.18;3.42;;;6.60;99.90;;;;;;5015283;28;20045;-76
2023/04/30 00:52:47;;;;;;;6.05;2.95;;;6.50;99.90;;;;;;5015972;28;20046;-77
2023/04/30 00:55:13;;;;;;;4.32;3.28;;;6.30;99.90;;;;;;5016144;28;20057;-77
2023/04/30 00:57:42;;;;;;;4.97;3.53;;;6.30;99.90;;;;;;4998877;28;20434;-77
2023/04/30 01:00:10;;;;;;;6.40;3.53;;;6.40;99.90;;;;;;5016049;28;20490;-76
2023/04/30 01:02:36;;;;;;;6.25;3.50;;;6.20;99.90;;;;;;5016000;28;20050;-77
2023/04/30 01:05:03;;;;;;;6.20;3.63;;;6.50;99.90;;;;;;4998668;28;20069;-76
2023/04/30 01:07:30;;;;;;;6.18;3.70;;;6.20;99.90;;;;;;5016004;28;20111;-76
2023/04/30 01:09:56;;;;;;;4.93;3.45;;;7.00;99.90;;;;;;5014703;28;20046;-76
2023/04/30 01:12:30;;;;;;;6.95;4.15;;;6.20;99.90;;;;;;5014898;28;20060;-76
2023/04/30 01:15:23;;;;;;;4.97;3.28;;;6.10;99.90;;;;;;5016404;28;20053;-77
2023/04/30 01:18:02;;;;;;;8.75;3.45;;;6.20;99.90;;;;;;5007492;28;20084;-77
2023/04/30 01:20:29;;;;;;;6.60;3.17;;;6.30;99.90;;;;;;5016030;28;20080;-78
2023/04/30 01:23:41;;;;;;;7.93;3.72;;;6.20;99.90;;;;;;5015597;28;20054;-77
2023/04/30 01:26:27;;;;;;;6.68;3.40;;;6.10;99.90;;;;;;5015814;28;20056;-77
2023/04/30 01:28:53;;;;;;;5.88;3.15;;;6.00;99.90;;;;;;5015614;28;20050;-77
2023/04/30 01:31:19;;;;;;;10.00;3.22;;;5.90;99.90;;;;;;5015325;28;20038;-77
2023/04/30 01:33:45;;;;;;;6.00;3.38;;;5.90;99.90;;;;;;4998106;28;20053;-76
2023/04/30 01:36:26;;;;;;;6.15;3.10;;;6.10;99.90;;;;;;5015237;28;20050;-77
2023/04/30 01:39:04;;;;;;;5.65;3.05;;;5.90;99.90;;;;;;5015339;28;20505;-78
2023/04/30 01:42:12;;;;;;;4.10;3.13;;;5.90;99.90;;;;;;5014632;28;20128;-78
2023/04/30 01:44:47;;;;;;;6.38;2.67;;;6.10;99.90;;;;;;4938253;29;20051;-78
2023/04/30 01:47:39;;;;;;;5.78;2.72;;;5.90;99.90;;;;;;4938684;29;20101;-78
2023/04/30 01:50:28;;;;;;;7.38;3.10;;;6.10;99.90;;;;;;4993793;28;20054;-78
2023/04/30 01:52:58;;;;;;;5.30;2.75;;;6.20;99.90;;;;;;5014500;28;20485;-78
2023/04/30 01:55:43;;;;;;;5.65;3.20;;;5.80;99.90;;;;;;5015848;28;20108;-78
2023/04/30 01:58:13;;;;;;;6.07;2.60;;;6.00;99.90;;;;;;5015921;28;20363;-78
2023/04/30 02:00:39;;;;;;;4.28;2.65;;;6.20;99.90;;;;;;4997641;28;20092;-78
2023/04/30 02:03:06;;;;;;;5.78;3.00;;;6.20;99.90;;;;;;5013610;28;20052;-78
2023/04/30 02:05:32;;;;;;;7.13;3.17;;;5.80;99.90;;;;;;5013890;28;20064;-77
2023/04/30 02:07:57;;;;;;;4.85;3.05;;;6.00;99.90;;;;;;5014456;28;20041;-77
2023/04/30 02:10:25;;;;;;;4.57;3.10;;;6.00;99.90;;;;;;4997737;28;20049;-78
2023/04/30 02:12:51;;;;;;;5.63;2.53;;;5.70;99.90;;;;;;4997084;28;20048;-80
2023/04/30 02:15:17;;;;;;;6.13;2.60;;;5.90;99.90;;;;;;4997707;28;20057;-77
2023/04/30 02:17:43;;;;;;;7.75;3.15;;;5.90;99.90;;;;;;5013656;28;20382;-78
2023/04/30 02:20:09;;;;;;;5.22;2.90;;;5.90;99.90;;;;;;5013925;28;20045;-78
2023/04/30 02:22:35;;;;;;;6.53;3.15;;;5.60;99.90;;;;;;5014824;28;20038;-78
2023/04/30 02:25:02;;;;;;;4.45;2.90;;;5.80;99.90;;;;;;5013317;28;20046;-80
2023/04/30 02:27:31;;;;;;;4.10;2.67;;;5.70;99.90;;;;;;5013219;28;20100;-78
2023/04/30 02:29:57;;;;;;;5.35;3.20;;;6.00;99.90;;;;;;5013468;28;20115;-78
2023/04/30 02:32:23;;;;;;;6.50;3.08;;;5.90;99.90;;;;;;4996985;28;20049;-79
2023/04/30 02:34:49;;;;;;;5.35;3.20;;;5.40;99.90;;;;;;5014809;28;20042;-78
2023/04/30 02:37:15;;;;;;;5.78;3.42;;;6.00;99.90;;;;;;5013930;28;20057;-78
2023/04/30 02:39:41;;;;;;;5.60;3.85;;;5.90;99.90;;;;;;5014271;28;20075;-78
2023/04/30 02:42:07;;;;;;;4.00;3.00;;;5.70;99.90;;;;;;5013534;28;20096;-79
2023/04/30 02:44:33;;;;;;;4.22;2.88;;;5.40;99.90;;;;;;4980396;28;20486;-79
2023/04/30 02:46:59;;;;;;;4.63;3.28;;;6.00;99.90;;;;;;5013142;28;20046;-79
2023/04/30 02:49:25;;;;;;;6.03;3.55;;;5.60;99.90;;;;;;5013980;28;20405;-79
2023/04/30 02:51:51;;;;;;;4.32;2.75;;;5.90;99.90;;;;;;5014603;28;20046;-80
2023/04/30 02:54:18;;;;;;;4.80;3.22;;;5.30;99.90;;;;;;5012882;28;20085;-79
2023/04/30 02:56:44;;;;;;;7.03;3.70;;;5.50;99.90;;;;;;5012120;28;20428;-79
2023/04/30 02:59:10;;;;;;;4.40;3.28;;;5.60;99.90;;;;;;5013950;28;20057;-79
2023/04/30 03:01:35;;;;;;;5.45;3.30;;;5.70;99.90;;;;;;5012968;28;20054;-79
2023/04/30 03:04:03;;;;;;;3.58;2.85;;;5.20;99.90;;;;;;5013175;28;20050;-79
2023/04/30 03:06:30;;;;;;;6.28;3.03;;;5.50;99.90;;;;;;4996941;28;20053;-79
2023/04/30 03:08:56;;;;;;;5.05;3.67;;;5.90;99.90;;;;;;4996570;28;20049;-79
2023/04/30 03:11:21;;;;;;;5.63;3.50;;;5.10;99.90;;;;;;4996392;28;20092;-79
2023/04/30 03:13:50;;;;;;;6.13;3.10;;;5.80;99.90;;;;;;5012554;28;20041;-79
2023/04/30 03:16:18;;;;;;;6.15;3.88;;;5.50;99.90;;;;;;5014026;28;20390;-80
2023/04/30 03:18:48;;;;;;;6.03;3.45;;;5.40;99.90;;;;;;4996235;28;20629;-79
2023/04/30 03:21:14;;;;;;;5.50;3.60;;;5.20;99.90;;;;;;5014320;28;20053;-79
2023/04/30 03:23:40;;;;;;;5.38;3.00;;;5.20;99.90;;;;;;5013693;28;20057;-79
2023/04/30 03:26:05;;;;;;;8.38;3.47;;;5.40;99.90;;;;;;5013608;28;20046;-79
2023/04/30 03:28:31;;;;;;;5.00;3.80;;;5.50;99.90;;;;;;4996352;28;20053;-79
2023/04/30 03:30:58;;;;;;;5.90;3.55;;;5.10;99.90;;;;;;4996162;28;20045;-79
2023/04/30 03:33:24;;;;;;;6.38;3.88;;;5.60;99.90;;;;;;4997184;28;20062;-79
2023/04/30 03:35:50;;;;;;;6.43;3.80;;;5.20;99.90;;;;;;5013047;28;20525;-79
2023/04/30 03:38:16;;;;;;;6.28;4.03;;;5.40;99.90;;;;;;4996625;28;20057;-80
2023/04/30 03:40:42;;;;;;;4.55;3.35;;;5.50;99.90;;;;;;5012438;28;20096;-79
2023/04/30 03:43:07;;;;;;;5.03;3.38;;;5.50;99.90;;;;;;4996582;28;20133;-80
2023/04/30 03:45:33;;;;;;;5.97;3.40;;;5.50;99.90;;;;;;5012914;28;20050;-80
2023/04/30 03:47:59;;;;;;;6.45;3.28;;;5.10;99.90;;;;;;5013780;28;20045;-80
2023/04/30 03:50:25;;;;;;;5.60;3.80;;;5.00;99.90;;;;;;4980829;28;20454;-79
2023/04/30 03:52:50;;;;;;;5.93;3.65;;;5.80;99.90;;;;;;5012879;28;20053;-78
2023/04/30 03:55:17;;;;;;;5.10;3.28;;;6.00;99.90;;;;;;4996470;28;20058;-79
2023/04/30 03:57:43;;;;;;;6.70;3.85;;;4.90;99.90;;;;;;4996529;28;20046;-80
2023/04/30 04:00:09;;;;;;;5.03;3.65;;;5.20;99.90;;;;;;5013133;28;20042;-80
2023/04/30 04:02:36;;;;;;;5.63;3.45;;;4.90;99.90;;;;;;5012260;28;20050;-80
2023/04/30 04:05:03;;;;;;;5.65;2.85;;;5.20;99.90;;;;;;4996132;28;20085;-80
2023/04/30 04:07:28;;;;;;;5.38;3.58;;;5.20;99.90;;;;;;5014174;28;20474;-80
2023/04/30 04:09:54;;;;;;;5.03;3.22;;;5.30;99.90;;;;;;5016957;28;20053;-80
2023/04/30 04:12:20;;;;;;;3.92;3.00;;;4.90;99.90;;;;;;5015458;28;20050;-80
2023/04/30 04:14:46;;;;;;;4.65;2.95;;;5.30;99.90;;;;;;5017023;28;20390;-80
2023/04/30 04:17:12;;;;;;;6.35;3.90;;;4.90;99.90;;;;;;5016536;28;20042;-80
2023/04/30 04:19:39;;;;;;;6.32;4.13;;;4.90;99.90;;;;;;5000412;28;20057;-79
2023/04/30 04:22:05;;;;;;;6.95;3.28;;;5.30;99.90;;;;;;5015693;28;20371;-79
2023/04/30 04:24:31;;;;;;;6.53;4.18;;;5.60;99.90;;;;;;5016738;28;20083;-80
2023/04/30 04:26:57;;;;;;;6.65;3.72;;;5.30;99.90;;;;;;5016569;28;20125;-80
2023/04/30 04:29:22;;;;;;;8.27;3.90;;;5.30;99.90;;;;;;5015588;28;20054;-81
2023/04/30 04:31:49;;;;;;;6.00;4.28;;;5.10;99.90;;;;;;5015384;28;20042;-81
2023/04/30 04:34:16;;;;;;;6.20;3.30;;;5.20;99.90;;;;;;5015592;28;20402;-81
2023/04/30 04:36:42;;;;;;;5.53;3.53;;;5.10;99.90;;;;;;5016315;28;20046;-81
2023/04/30 04:39:07;;;;;;;5.50;3.55;;;5.40;99.90;;;;;;5016443;28;20046;-81
2023/04/30 04:41:36;;;;;;;6.28;3.78;;;5.30;99.90;;;;;;5016385;28;20081;-81
2023/04/30 04:44:03;;;;;;;5.40;3.28;;;5.30;99.90;;;;;;5015366;28;20486;-81
2023/04/30 04:46:30;;;;;;;5.65;3.67;;;5.10;99.90;;;;;;5015333;28;20064;-81
2023/04/30 04:48:56;;;;;;;6.28;3.53;;;5.20;99.90;;;;;;5015072;28;20046;-81
2023/04/30 04:51:23;;;;;;;10.23;4.28;;;5.40;99.90;;;;;;5015135;28;20192;-81
2023/04/30 04:53:48;;;;;;;6.55;4.10;;;6.00;99.90;;;;;;4998814;28;20065;-80
2023/04/30 04:56:14;;;;;;;7.43;3.50;;;5.40;99.90;;;;;;5014890;28;20046;-81
2023/04/30 04:58:41;;;;;;;8.02;3.70;;;5.20;99.90;;;;;;4998546;28;20084;-81
2023/04/30 05:01:08;;;;;;;7.93;3.92;;;5.70;99.90;;;;;;5014821;28;20057;-81
2023/04/30 05:03:37;;;;;;;6.68;3.85;;;5.50;99.90;;;;;;5015049;28;20085;-80
2023/04/30 05:06:04;;;;;;;5.72;3.55;;;5.50;99.90;;;;;;5015744;28;20081;-81
2023/04/30 05:08:30;;;;;;;6.32;3.72;;;5.40;99.90;;;;;;5015992;28;20065;-80
2023/04/30 05:10:55;;;;;;;4.78;3.53;;;5.50;99.90;;;;;;5016553;28;20455;-81
2023/04/30 05:13:21;;;;;;;5.25;3.53;;;5.50;99.90;;;;;;4998234;28;20057;-80
2023/04/30 05:15:50;;;;;;;6.18;3.70;;;5.90;99.90;;;;;;5015792;28;20057;-81
2023/04/30 05:18:15;;;;;;;5.68;3.80;;;5.90;99.90;;;;;;5014052;28;20053;-81
2023/04/30 05:20:41;;;;;;;7.07;3.45;;;5.80;99.90;;;;;;4998383;28;20049;-81
2023/04/30 05:23:07;;;;;;;8.75;3.75;;;5.80;99.90;;;;;;5015579;28;20052;-81
2023/04/30 05:25:34;;;;;;;7.03;3.80;;;6.60;99.90;;;;;;5015543;28;20052;-81
2023/04/30 05:27:59;;;;;;;5.43;3.30;;;5.90;99.90;;;;;;4998696;28;20061;-80
2023/04/30 05:30:25;;;;;;;5.80;3.50;;;5.80;99.90;;;;;;5014526;28;20037;-80
2023/04/30 05:32:51;;;;;;;7.05;3.58;;;6.00;99.90;;;;;;4997565;28;20042;-80
2023/04/30 05:35:17;;;;;;;8.10;3.15;;;6.60;99.90;;;;;;4998093;28;20050;-80
2023/04/30 05:37:43;;;;;;;8.40;3.58;;;6.30;99.90;;;;;;5015258;28;20359;-81
2023/04/30 05:40:10;;;;;;;7.35;3.60;;;6.20;99.90;;;;;;4998111;28;20112;-81
2023/04/30 05:42:37;;;;;;;6.85;3.05;;;6.50;99.90;;;;;;5015301;28;20096;-80
2023/04/30 05:45:03;;;;;;;7.03;3.08;;;6.50;99.90;;;;;;5014009;28;20053;-80
2023/04/30 05:47:30;;;;;;;7.47;2.70;;;6.70;99.90;;;;;;5014997;28;20050;-81
2023/04/30 05:49:56;;;;;;;10.07;3.30;;;6.60;99.90;;;;;;5014419;28;20049;-79
2023/04/30 05:52:22;;;;;;;5.50;2.78;;;7.00;99.90;;;;;;4982343;28;20048;-79
2023/04/30 05:54:48;;;;;;;7.75;2.88;;;6.90;99.90;;;;;;4997207;28;20054;-79
2023/04/30 05:57:14;;;;;;;4.65;2.88;;;6.80;99.90;;;;;;4997673;28;20104;-80
2023/04/30 05:59:40;;;;;;;6.07;3.17;;;7.00;99.90;;;;;;5014788;28;20058;-80
2023/04/30 06:02:06;;;;;;;5.53;2.55;;;7.10;99.90;;;;;;4997331;28;20050;-80
2023/04/30 06:04:31;;;;;;;5.95;2.53;;;7.00;99.90;;;;;;5014078;28;20042;-78
2023/04/30 06:06:57;;;;;;;5.78;2.55;;;7.30;99.90;;;;;;5015106;28;20045;-79
2023/04/30 06:09:23;;;;;;;6.32;2.25;;;7.10;99.90;;;;;;5013554;28;20088;-80
2023/04/30 06:11:49;;;;;;;6.47;2.55;;;7.20;99.90;;;;;;5013779;28;20155;-80
2023/04/30 06:14:19;;;;;;;8.15;2.28;;;7.30;99.90;;;;;;5013753;28;20058;-80
2023/04/30 06:16:45;;;;;;;7.20;2.72;;;7.40;99.90;;;;;;5014677;28;20060;-81
2023/04/30 06:19:11;;;;;;;6.13;2.25;;;7.20;99.90;;;;;;4997278;28;20057;-81
2023/04/30 06:21:37;;;;;;;6.45;1.80;;;7.20;99.90;;;;;;5015063;28;20038;-80
2023/04/30 06:24:04;;;;;;;4.93;1.60;;;7.20;99.90;;;;;;5014532;28;20089;-80
2023/04/30 06:26:29;;;;;;;3.97;1.73;;;7.30;99.90;;;;;;4996551;28;20494;-80
2023/04/30 06:28:55;;;;;;;6.47;2.25;;;7.70;99.90;;;;;;5013479;28;20049;-80
2023/04/30 06:31:21;;;;;;;4.90;1.65;;;7.60;99.90;;;;;;4996717;28;20053;-80
2023/04/30 06:33:47;;;;;;;5.03;1.50;;;7.60;99.90;;;;;;5014947;28;20050;-80
2023/04/30 06:36:13;;;;;;;3.90;1.45;;;7.30;99.90;;;;;;4997845;28;20068;-81
2023/04/30 06:38:40;;;;;;;6.30;1.30;;;7.70;99.90;;;;;;4981320;28;20431;-80
2023/04/30 06:41:05;;;;;;;5.78;1.67;;;7.50;99.90;;;;;;4997841;28;20153;-80
2023/04/30 06:43:31;;;;;;;6.65;1.50;;;7.60;99.90;;;;;;5012961;28;20088;-80
2023/04/30 06:45:57;;;;;;;5.20;1.58;;;7.60;99.90;;;;;;5013794;28;20100;-80
2023/04/30 06:48:23;;;;;;;8.25;1.52;;;7.70;99.90;;;;;;5014106;28;20084;-81
2023/04/30 06:50:49;;;;;;;4.00;1.30;;;7.60;99.90;;;;;;5013052;28;20065;-80
2023/04/30 06:53:15;;;;;;;4.93;1.35;;;7.70;99.90;;;;;;5013841;28;20062;-80
2023/04/30 06:55:41;;;;;;;4.03;0.98;;;7.80;99.90;;;;;;5014283;28;20088;-81
2023/04/30 06:58:07;;;;;;;3.67;1.10;;;7.90;99.90;;;;;;5013084;28;20434;-80
2023/04/30 07:00:36;;;;;;;3.85;1.15;;;8.20;99.90;;;;;;5012648;28;20038;-80
2023/04/30 07:03:03;;;;;;;7.13;1.50;;;8.30;99.90;;;;;;5013940;28;20053;-80
2023/04/30 07:05:29;;;;;;;5.80;1.33;;;8.10;99.90;;;;;;5012965;28;20398;-79
2023/04/30 07:07:56;;;;;;;5.25;1.17;;;8.40;99.90;;;;;;5012776;28;20132;-80
2023/04/30 07:10:21;;;;;;;5.13;1.40;;;8.30;99.90;;;;;;5012748;28;20048;-80
2023/04/30 07:12:47;;;;;;;7.32;1.60;;;8.40;99.90;;;;;;5012861;28;20050;-80
2023/04/30 07:15:13;;;;;;;8.75;1.52;;;8.30;99.90;;;;;;5012623;28;20056;-80
2023/04/30 07:17:40;;;;;;;4.20;1.40;;;8.50;99.90;;;;;;4980359;28;20050;-80
2023/04/30 07:20:07;;;;;;;4.57;1.10;;;9.60;99.90;;;;;;5013481;28;20486;-79
2023/04/30 07:22:33;;;;;;;3.20;1.35;;;8.70;99.90;;;;;;4996477;28;20057;-80
2023/04/30 07:24:59;;;;;;;4.22;1.25;;;8.90;99.90;;;;;;5012542;28;20486;-80
2023/04/30 07:27:27;;;;;;;6.85;1.23;;;9.00;99.90;;;;;;5013505;28;20052;-82
2023/04/30 07:29:53;;;;;;;4.90;1.30;;;9.00;99.90;;;;;;5014482;28;20053;-80
2023/04/30 07:32:19;;;;;;;5.20;1.20;;;9.00;99.90;;;;;;5013887;28;20125;-80
2023/04/30 07:34:45;;;;;;;6.75;1.50;;;9.20;99.90;;;;;;5012427;28;20128;-79
2023/04/30 07:37:11;;;;;;;5.45;1.00;;;9.20;99.90;;;;;;5013461;28;20048;-80
2023/04/30 07:39:37;;;;;;;4.45;1.25;;;9.20;99.90;;;;;;5012354;28;20485;-79
2023/04/30 07:42:03;;;;;;;4.90;1.13;;;9.30;99.90;;;;;;4997200;28;20065;-80
2023/04/30 07:44:31;;;;;;;7.03;1.17;;;9.40;99.90;;;;;;5000056;28;20104;-80
2023/04/30 07:46:56;;;;;;;4.82;1.20;;;9.50;99.90;;;;;;5018229;28;20425;-79
2023/04/30 07:49:22;;;;;;;6.88;1.42;;;9.30;99.90;;;;;;4999520;28;20103;-79
2023/04/30 07:51:48;;;;;;;8.25;1.30;;;9.50;99.90;;;;;;5017393;28;20046;-78
2023/04/30 07:54:14;;;;;;;4.85;0.90;;;9.40;99.90;;;;;;5016626;28;20065;-79
2023/04/30 07:56:40;;;;;;;8.57;1.30;;;9.40;99.90;;;;;;5017077;28;20387;-81
2023/04/30 07:59:06;;;;;;;4.53;1.20;;;9.40;99.90;;;;;;4999900;28;20045;-79
2023/04/30 08:01:32;;;;;;;4.13;1.23;;;9.50;99.90;;;;;;5016863;28;20049;-79
2023/04/30 08:03:57;;;;;;;6.40;1.25;;;9.40;99.90;;;;;;5016495;28;20394;-78
2023/04/30 08:06:26;;;;;;;7.70;1.08;;;9.40;99.90;;;;;;5016243;28;20037;-79
2023/04/30 08:08:52;;;;;;;6.07;1.30;;;9.50;99.90;;;;;;5016883;28;20377;-77
2023/04/30 08:11:18;;;;;;;4.10;1.00;;;9.50;99.90;;;;;;5016010;28;20120;-77
2023/04/30 08:13:44;;;;;;;3.60;1.60;;;9.50;99.90;;;;;;5016135;28;20115;-78
2023/04/30 08:16:09;;;;;;;4.40;1.10;;;9.50;99.90;;;;;;5015871;28;20495;-78
2023/04/30 08:18:37;;;;;;;4.20;1.30;;;9.60;99.90;;;;;;5016994;28;20046;-78
2023/04/30 08:21:04;;;;;;;5.43;1.13;;;9.70;99.90;;;;;;5000827;28;20089;-78
2023/04/30 08:23:30;;;;;;;5.18;1.23;;;9.80;99.90;;;;;;5000395;28;20046;-77
2023/04/30 08:25:56;;;;;;;2.67;1.05;;;9.90;99.90;;;;;;5016517;28;20095;-77
2023/04/30 08:28:21;;;;;;;7.05;1.23;;;9.90;99.90;;;;;;5016673;28;20123;-78
2023/04/30 08:30:47;;;;;;;3.10;1.40;;;10.10;99.90;;;;;;5015650;28;20068;-79
2023/04/30 08:33:13;;;;;;;5.05;1.48;;;10.10;99.90;;;;;;4999213;28;20144;-78
2023/04/30 08:35:38;;;;;;;6.65;1.50;;;10.20;99.90;;;;;;4999542;28;20184;-79
2023/04/30 08:38:04;;;;;;;6.47;1.95;;;10.30;99.90;;;;;;5015298;28;20041;-80
2023/04/30 08:40:34;;;;;;;4.55;1.30;;;10.40;99.90;;;;;;5016330;28;20093;-78
2023/04/30 08:43:07;;;;;;;4.20;1.40;;;10.40;99.90;;;;;;5015550;28;20064;-78
2023/04/30 08:45:35;;;;;;;5.18;1.65;;;10.50;99.90;;;;;;5015323;28;20132;-79
2023/04/30 08:48:03;;;;;;;7.00;1.50;;;10.60;99.90;;;;;;5015436;28;20149;-78
2023/04/30 08:50:30;;;;;;;6.07;1.58;;;10.60;99.90;;;;;;5015357;28;20077;-78
2023/04/30 08:52:57;;;;;;;3.92;1.40;;;10.70;99.90;;;;;;5015850;28;20053;-78
2023/04/30 08:55:26;;;;;;;3.55;1.25;;;10.70;99.90;;;;;;5014199;28;20046;-78
2023/04/30 08:57:52;;;;;;;5.57;1.60;;;11.20;99.90;;;;;;5015665;28;20140;-78
2023/04/30 09:00:18;;;;;;;3.53;1.52;;;10.90;99.90;;;;;;4982420;28;20156;-77
2023/04/30 09:02:44;;;;;;;4.25;1.52;;;10.90;99.90;;;;;;5015485;28;20049;-78
2023/04/30 09:05:11;;;;;;;5.10;1.65;;;10.90;99.90;;;;;;5014890;28;20046;-78
2023/04/30 09:07:42;;;;;;;5.53;1.48;;;10.90;99.90;;;;;;5015333;28;20444;-78
2023/04/30 09:10:16;;;;;;;4.78;1.35;;;11.00;99.90;;;;;;5015954;28;20490;-76
2023/04/30 09:12:44;;;;;;;5.65;1.63;;;11.00;99.90;;;;;;5015855;28;20129;-77
2023/04/30 09:15:11;;;;;;;6.40;1.70;;;11.10;99.90;;;;;;5015895;28;20045;-78
2023/04/30 09:17:37;;;;;;;6.10;2.03;;;11.10;99.90;;;;;;5014809;28;20049;-78
2023/04/30 09:20:11;;;;;;;4.20;1.38;;;11.20;99.90;;;;;;5015130;28;20053;-78
2023/04/30 09:22:39;;;;;;;4.88;1.55;;;11.30;99.90;;;;;;5014758;28;20052;-75
2023/04/30 09:25:06;;;;;;;3.47;1.30;;;11.30;99.90;;;;;;5015518;28;20049;-75
2023/04/30 09:27:31;;;;;;;5.15;1.30;;;11.40;99.90;;;;;;5014851;28;20080;-76
2023/04/30 09:29:57;;;;;;;4.18;1.50;;;11.40;99.90;;;;;;5014532;28;20046;-73
2023/04/30 09:32:23;;;;;;;3.53;1.25;;;11.50;99.90;;;;;;5015506;28;20482;-74
2023/04/30 09:34:49;;;;;;;3.72;1.48;;;11.50;99.90;;;;;;5015419;28;20049;-73
2023/04/30 09:37:15;;;;;;;3.22;1.23;;;11.60;99.90;;;;;;5014504;28;20050;-78
2023/04/30 09:39:51;;;;;;;4.60;1.40;;;11.60;99.90;;;;;;5014488;28;20061;-73
2023/04/30 09:42:20;;;;;;;6.00;1.38;;;11.70;99.90;;;;;;5014204;28;20504;-79
2023/04/30 09:44:46;;;;;;;5.30;1.35;;;11.80;99.90;;;;;;5014265;28;20131;-74
2023/04/30 09:47:18;;;;;;;3.67;1.30;;;11.80;99.90;;;;;;5015287;28;20418;-74
2023/04/30 09:49:47;;;;;;;4.30;1.35;;;11.90;99.90;;;;;;5014120;28;20160;-73
2023/04/30 09:52:15;;;;;;;3.90;1.60;;;11.90;99.90;;;;;;5015162;28;20049;-74
2023/04/30 09:54:42;;;;;;;5.88;1.80;;;12.00;99.90;;;;;;5014920;28;20057;-73
2023/04/30 09:57:10;;;;;;;4.50;2.08;;;12.10;99.90;;;;;;5015556;28;20092;-73
2023/04/30 09:59:38;;;;;;;6.18;1.42;;;12.10;99.90;;;;;;5013949;28;20136;-73
2023/04/30 10:02:07;;;;;;;6.28;1.88;;;12.20;99.90;;;;;;5014984;28;20048;-72
2023/04/30 10:04:36;;;;;;;4.88;1.52;;;12.20;99.90;;;;;;5014634;28;20053;-72
2023/04/30 10:07:07;;;;;;;5.65;1.55;;;12.20;99.90;;;;;;5013712;28;20042;-72
2023/04/30 10:09:58;;;;;;;7.40;1.48;;;12.20;99.90;;;;;;5013774;28;20045;-72
2023/04/30 10:12:33;;;;;;;4.10;1.35;;;12.20;99.90;;;;;;5014075;28;20093;-71
2023/04/30 10:15:08;;;;;;;4.55;1.45;;;12.30;99.90;;;;;;5014781;28;20108;-72
2023/04/30 10:17:39;;;;;;;2.75;1.10;;;12.30;99.90;;;;;;5015254;28;20050;-73
2023/04/30 10:20:08;;;;;;;4.32;1.40;;;12.40;99.90;;;;;;5014463;28;20042;-72
2023/04/30 10:22:35;;;;;;;5.80;1.58;;;12.40;99.90;;;;;;5014472;28;20085;-80
2023/04/30 10:25:01;;;;;;;5.60;1.70;;;12.50;99.90;;;;;;5014098;28;20076;-81
2023/04/30 10:27:28;;;;;;;6.90;1.52;;;12.60;99.90;;;;;;4980516;28;20050;-82
2023/04/30 10:29:54;;;;;;;2.60;1.30;;;12.60;99.90;;;;;;4996775;28;20414;-80
2023/04/30 10:32:22;;;;;;;6.72;1.35;;;12.70;99.90;;;;;;4996511;28;20123;-81
2023/04/30 10:35:05;;;;;;;3.08;1.38;;;12.80;99.90;;;;;;4996842;28;20092;-82
2023/04/30 10:37:39;;;;;;;5.97;1.30;;;12.90;99.90;;;;;;4996932;28;20093;-80
2023/04/30 10:40:08;;;;;;;4.72;1.52;;;12.90;99.90;;;;;;4996798;28;20509;-83
2023/04/30 10:42:35;;;;;;;2.10;1.25;;;12.90;99.90;;;;;;4997397;28;20081;-81
2023/04/30 10:45:04;;;;;;;5.38;1.50;;;12.80;99.90;;;;;;4996911;28;20481;-80
2023/04/30 10:47:30;;;;;;;6.30;1.20;;;12.80;99.90;;;;;;4997061;28;20099;-79
2023/04/30 10:50:07;;;;;;;5.05;1.40;;;12.70;99.90;;;;;;5013939;28;20041;-79
2023/04/30 10:52:33;;;;;;;4.80;1.45;;;12.70;99.90;;;;;;5013017;28;20041;-81
2023/04/30 10:55:06;;;;;;;4.70;1.60;;;12.70;99.90;;;;;;5014381;28;20116;-77
2023/04/30 10:57:40;;;;;;;4.82;1.40;;;12.70;99.90;;;;;;5012923;28;20176;-78
2023/04/30 11:00:06;;;;;;;6.35;1.70;;;12.70;99.90;;;;;;4996515;28;20050;-79
2023/04/30 11:02:42;;;;;;;2.83;1.45;;;12.60;99.90;;;;;;5013706;28;20203;-79
2023/04/30 11:05:16;;;;;;;6.70;1.60;;;12.70;99.90;;;;;;5014024;28;20046;-78
2023/04/30 11:07:57;;;;;;;6.45;1.60;;;12.70;99.90;;;;;;5013813;28;20124;-79
2023/04/30 11:10:31;;;;;;;5.32;1.42;;;12.70;99.90;;;;;;5013752;28;20091;-80
2023/04/30 11:12:58;;;;;;;5.80;1.85;;;12.80;99.90;;;;;;4997478;28;20501;-82
2023/04/30 11:15:25;;;;;;;4.32;1.40;;;12.70;99.90;;;;;;5012360;28;20519;-76
2023/04/30 11:17:57;;;;;;;2.78;1.27;;;12.70;99.90;;;;;;4995659;28;20046;-76
2023/04/30 11:20:24;;;;;;;5.60;1.45;;;12.70;99.90;;;;;;5012565;28;20046;-80
2023/04/30 11:23:10;;;;;;;7.13;1.48;;;12.70;99.90;;;;;;4996186;28;20089;-71
2023/04/30 11:25:40;;;;;;;3.90;1.55;;;12.80;99.90;;;;;;5013516;28;20061;-73
2023/04/30 11:28:06;;;;;;;2.92;1.40;;;12.80;99.90;;;;;;5013653;28;20050;-73
2023/04/30 11:30:33;;;;;;;4.07;1.30;;;12.90;99.90;;;;;;4995976;28;20129;-76
2023/04/30 11:33:00;;;;;;;3.40;1.30;;;12.90;99.90;;;;;;5013407;28;20080;-74
2023/04/30 11:35:28;;;;;;;2.83;1.10;;;12.90;99.90;;;;;;5013866;28;20054;-74
2023/04/30 11:37:55;;;;;;;3.45;1.00;;;13.00;99.90;;;;;;5012791;28;20046;-72
2023/04/30 11:40:21;;;;;;;3.67;1.13;;;13.00;99.90;;;;;;5013331;28;20621;-75
2023/04/30 11:42:47;;;;;;;2.20;1.35;;;13.00;99.90;;;;;;5013108;28;20088;-73
2023/04/30 11:45:19;;;;;;;2.70;1.15;;;13.10;99.90;;;;;;5012052;28;20104;-72
2023/04/30 11:47:47;;;;;;;2.63;0.90;;;13.20;99.90;;;;;;5013411;28;20108;-72
2023/04/30 11:50:20;;;;;;;2.40;0.90;;;13.30;99.90;;;;;;5013073;28;20133;-74
2023/04/30 11:52:51;;;;;;;2.92;1.00;;;13.30;99.90;;;;;;5013295;28;20057;-75
2023/04/30 11:55:19;;;;;;;1.67;0.90;;;13.40;99.90;;;;;;5013755;28;20050;-74
2023/04/30 11:57:50;;;;;;;2.85;0.95;;;13.40;99.90;;;;;;5013789;28;20069;-74
2023/04/30 12:00:17;;;;;;;2.88;0.80;;;13.40;99.90;;;;;;5012481;28;20081;-73
2023/04/30 12:02:46;;;;;;;2.38;0.80;;;13.50;99.90;;;;;;5012310;28;20101;-73
2023/04/30 12:05:16;;;;;;;3.72;1.42;;;13.50;99.90;;;;;;5013215;28;20050;-73
2023/04/30 12:07:50;;;;;;;3.10;1.40;;;13.50;99.90;;;;;;5014298;28;20368;-73
2023/04/30 12:10:18;;;;;;;2.88;1.00;;;13.60;99.90;;;;;;5012104;28;20045;-74
2023/04/30 12:12:45;;;;;;;2.95;1.10;;;13.60;99.90;;;;;;5013221;28;20042;-74
2023/04/30 12:15:16;;;;;;;3.75;1.10;;;13.60;99.90;;;;;;5012815;28;20498;-76
2023/04/30 12:17:42;;;;;;;2.65;1.00;;;13.60;99.90;;;;;;4995887;28;20046;-75
2023/04/30 12:20:09;;;;;;;2.17;0.90;;;13.70;99.90;;;;;;4995469;28;20081;-77
2023/04/30 12:22:39;;;;;;;2.17;0.73;;;13.80;99.90;;;;;;5012108;28;20100;-78
2023/04/30 12:25:08;;;;;;;3.10;0.93;;;13.80;99.90;;;;;;5011820;28;20088;-79
2023/04/30 12:27:35;;;;;;;3.03;0.93;;;13.80;99.90;;;;;;5011897;28;20405;-82
2023/04/30 12:30:08;;;;;;;1.45;0.80;;;13.90;99.90;;;;;;4983228;28;20505;-80
2023/04/30 12:32:48;;;;;;;1.05;0.60;;;13.90;99.90;;;;;;5015193;28;20042;-81
2023/04/30 12:35:16;;;;;;;2.22;0.90;;;13.90;99.90;;;;;;4999471;28;20129;-80
2023/04/30 12:37:46;;;;;;;2.35;1.08;;;14.10;99.90;;;;;;5016363;28;20049;-84
2023/04/30 12:40:13;;;;;;;2.15;0.93;;;13.80;99.90;;;;;;5015307;28;20247;-82
2023/04/30 12:42:41;;;;;;;4.28;1.40;;;13.80;99.90;;;;;;5016017;28;20132;-83
2023/04/30 12:45:08;;;;;;;2.60;0.90;;;13.90;99.90;;;;;;5015162;28;20057;-81
2023/04/30 12:47:40;;;;;;;3.08;1.25;;;13.90;99.90;;;;;;4998618;28;20048;-82
2023/04/30 12:50:11;;;;;;;2.55;1.20;;;13.90;99.90;;;;;;4999157;28;20046;-82
2023/04/30 12:52:38;;;;;;;2.85;1.30;;;14.00;99.90;;;;;;5015722;28;20057;-84
2023/04/30 12:55:17;;;;;;;2.80;1.10;;;14.00;99.90;;;;;;4998436;28;20058;-82
2023/04/30 12:58:03;;;;;;;3.83;0.98;;;14.10;99.90;;;;;;4998837;28;20073;-86